Welcome to Northern Hawkes Bay. New Zealand.
PWS Header
      nz Flag



Hit Counter


W3C Valid W3C Valid logo


    Wairoa

Select any of the Stations below to visit their websites.










Historic Data from Weather Underground
Select the location of interest below. Wairoa is the default. Please have patience, this Data is slow to load in.
Northern Hawkes Bay Historical Data
Daily Summary for March 31, 2017 Units:  English    Metric   Both
« Previous Day
Next Day »
Daily Weekly Monthly Yearly Custom
  High: Low: Average:
Temperature: 84.7 °F 55.8 °F 66.7 °F
Dew Point: 64.2 °F 55.6 °F 59.5 °F
Humidity: 99% 42% 81%
Wind Speed: 6mph 0mph 0.9mph
Wind Gust: 9.2mph - -
Wind- - SSW
Pressure: 30.1 in 30 in -
Precipitation: 0 in    
Historical Graphs
 
 
Tabular Data for March 31, 2017
Time Temperature Dew Point Pressure Wind Wind Speed Wind Gust Humidity Rainfall Rate (Hourly) solar
00:05 62.4 °F 60.1 °F 30.1 in Calm     92% 0 in 0 W/m2
00:11 62.2 °F 59.9 °F 30.1 in Calm     92% 0 in 0 W/m2
00:17 62.1 °F 59.7 °F 30.1 in Calm     92% 0 in 0 W/m2
00:23 61.7 °F 59.4 °F 30.1 in Calm     92% 0 in 0 W/m2
00:29 61.5 °F 59.5 °F 30.1 in Calm     93% 0 in 0 W/m2
00:35 61.3 °F 59.4 °F 30.1 in NW 0.7 mph 3.1 mph 93% 0 in 0 W/m2
00:41 61.3 °F 59.5 °F 30.1 in Calm   4.5 mph 94% 0 in 0 W/m2
00:47 61.2 °F 59.4 °F 30.1 in Calm   3.8 mph 94% 0 in 0 W/m2
00:53 61.2 °F 59.4 °F 30.1 in Calm     94% 0 in 0 W/m2
01:00 61.2 °F 59.4 °F 30.1 in Calm     94% 0 in 0 W/m2
01:05 61 °F 59.4 °F 30.1 in Calm     94% 0 in 0 W/m2
01:11 60.6 °F 59.2 °F 30.1 in Calm     95% 0 in 0 W/m2
01:17 60.3 °F 58.8 °F 30.1 in Calm     95% 0 in 0 W/m2
01:23 60.3 °F 58.8 °F 30.1 in Calm     95% 0 in 0 W/m2
01:29 60.3 °F 58.8 °F 30.1 in Calm     95% 0 in 0 W/m2
01:35 60.1 °F 59 °F 30.1 in Calm     96% 0 in 0 W/m2
01:41 59.9 °F 58.8 °F 30.1 in Calm     96% 0 in 0 W/m2
01:47 59.7 °F 58.6 °F 30.1 in Calm     96% 0 in 0 W/m2
01:53 59.7 °F 58.6 °F 30.1 in Calm     96% 0 in 0 W/m2
01:59 59.5 °F 58.5 °F 30.1 in Calm     96% 0 in 0 W/m2
02:05 59.5 °F 58.5 °F 30.1 in Calm     96% 0 in 0 W/m2
02:11 59.5 °F 58.5 °F 30.1 in Calm     96% 0 in 0 W/m2
02:17 59.5 °F 58.6 °F 30.1 in Calm     97% 0 in 0 W/m2
02:23 59.4 °F 58.5 °F 30.1 in Calm     97% 0 in 0 W/m2
02:30 59.2 °F 58.3 °F 30.1 in Calm     97% 0 in 0 W/m2
02:35 59.2 °F 58.3 °F 30.1 in Calm     97% 0 in 0 W/m2
02:41 59 °F 58.3 °F 30.1 in Calm     97% 0 in 0 W/m2
02:47 59.2 °F 58.3 °F 30.1 in Calm     97% 0 in 0 W/m2
02:53 59 °F 58.3 °F 30.1 in Calm     97% 0 in 0 W/m2
02:59 58.8 °F 58.6 °F 30.1 in Calm     99% 0 in 0 W/m2
03:05 58.8 °F 58.6 °F 30.1 in Calm     99% 0 in 0 W/m2
03:25 58.5 °F 58.3 °F 30.1 in Calm     99% 0 in 0 W/m2
03:31 58.5 °F 58.3 °F 30.1 in Calm     99% 0 in 0 W/m2
03:37 58.6 °F 58.5 °F 30.1 in NW 2.2 mph 3.1 mph 99% 0 in 0 W/m2
03:43 58.6 °F 58.5 °F 30.1 in Calm   3.1 mph 99% 0 in 0 W/m2
03:49 58.8 °F 58.6 °F 30.1 in Calm   0.7 mph 99% 0 in 0 W/m2
03:55 58.6 °F 58.5 °F 30.1 in Calm     99% 0 in 0 W/m2
04:01 58.6 °F 58.5 °F 30.1 in Calm     99% 0 in 0 W/m2
04:07 58.6 °F 58.5 °F 30.1 in Calm     99% 0 in 0 W/m2
04:13 58.5 °F 58.3 °F 30.1 in Calm     99% 0 in 0 W/m2
04:19 58.3 °F 57.9 °F 30.1 in Calm     99% 0 in 0 W/m2
04:25 58.1 °F 57.7 °F 30.1 in Calm     99% 0 in 0 W/m2
04:31 57.9 °F 57.7 °F 30.1 in Calm     99% 0 in 0 W/m2
04:37 57.9 °F 57.7 °F 30.1 in Calm     99% 0 in 0 W/m2
04:43 57.9 °F 57.7 °F 30.1 in Calm     99% 0 in 0 W/m2
04:49 57.7 °F 57.6 °F 30.1 in Calm     99% 0 in 0 W/m2
04:55 57.6 °F 57.4 °F 30.1 in Calm     99% 0 in 0 W/m2
05:03 57.2 °F 56.8 °F 30.1 in Calm     99% 0 in 0 W/m2
05:09 57.2 °F 56.8 °F 30.1 in Calm     99% 0 in 0 W/m2
05:15 57 °F 56.8 °F 30.1 in Calm     99% 0 in 0 W/m2
05:21 56.8 °F 56.7 °F 30.1 in Calm     99% 0 in 0 W/m2
05:39 56.7 °F 56.5 °F 30.1 in Calm     99% 0 in 0 W/m2
05:45 56.5 °F 56.1 °F 30.1 in Calm     99% 0 in 0 W/m2
05:51 56.3 °F 55.9 °F 30.1 in Calm     99% 0 in 0 W/m2
05:57 56.3 °F 55.9 °F 30.1 in Calm     99% 0 in 0 W/m2
06:03 56.1 °F 55.9 °F 30.1 in Calm     99% 0 in 0 W/m2
06:09 56.1 °F 55.9 °F 30.1 in Calm     99% 0 in 0 W/m2
06:15 55.9 °F 55.8 °F 30.1 in Calm     99% 0 in 0 W/m2
06:21 55.9 °F 55.8 °F 30.1 in Calm     99% 0 in 0 W/m2
06:27 55.9 °F 55.8 °F 30.1 in Calm     99% 0 in 0 W/m2
06:33 55.9 °F 55.8 °F 30.1 in Calm     99% 0 in 0 W/m2
06:39 55.8 °F 55.6 °F 30.1 in Calm   2.2 mph 99% 0 in 0 W/m2
06:45 55.8 °F 55.6 °F 30.1 in NW 1.6 mph 3.1 mph 99% 0 in 0 W/m2
06:51 55.8 °F 55.6 °F 30.1 in Calm   3.1 mph 99% 0 in 0 W/m2
06:57 55.9 °F 55.8 °F 30.1 in NW 1.6 mph 3.8 mph 99% 0 in 0 W/m2
07:03 55.9 °F 55.8 °F 30.1 in Calm   4.5 mph 99% 0 in 0 W/m2
07:09 55.8 °F 55.6 °F 30.1 in Calm   4.5 mph 99% 0 in 0 W/m2
07:11 55.8 °F 55.6 °F 30.1 in NW 1.6 mph 4.5 mph 99% 0 in 0 W/m2
07:17 55.9 °F 55.8 °F 30.1 in Calm   4.5 mph 99% 0 in 0 W/m2
07:23 55.9 °F 55.8 °F 30.1 in NNW 2.2 mph 6 mph 99% 0 in 3 W/m2
07:29 55.9 °F 55.8 °F 30.1 in NW 1.6 mph 6 mph 99% 0 in 6 W/m2
07:35 55.9 °F 55.8 °F 30.1 in NW 3.1 mph 4.5 mph 99% 0 in 11 W/m2
07:41 55.9 °F 55.8 °F 30.1 in NNW 0.7 mph 4.5 mph 99% 0 in 14 W/m2
07:47 55.9 °F 55.8 °F 30.1 in NW 2.2 mph 4.5 mph 99% 0 in 17 W/m2
07:53 56.1 °F 55.9 °F 30.1 in Calm   3.8 mph 99% 0 in 81 W/m2
07:59 57 °F 56.8 °F 30.1 in Calm   3.8 mph 99% 0 in 100 W/m2
08:05 57.6 °F 57.4 °F 30.1 in Calm   3.1 mph 99% 0 in 119 W/m2
08:11 58.1 °F 57.7 °F 30.1 in NNW 2.2 mph 4.5 mph 99% 0 in 134 W/m2
08:17 58.5 °F 58.3 °F 30.1 in NNW 1.6 mph 4.5 mph 99% 0 in 157 W/m2
08:23 59.2 °F 58.8 °F 30.1 in Calm   6 mph 99% 0 in 173 W/m2
08:29 59.7 °F 59.5 °F 30.1 in Calm   6 mph 99% 0 in 198 W/m2
08:35 60.6 °F 59.7 °F 30.1 in NW 0.7 mph 6 mph 97% 0 in 220 W/m2
08:41 61 °F 59 °F 30.1 in NW 3.1 mph 5.4 mph 93% 0 in 238 W/m2
08:47 61.3 °F 58.6 °F 30.1 in NW 3.1 mph 5.4 mph 91% 0 in 250 W/m2
08:53 61.9 °F 58.8 °F 30.1 in NW 2.2 mph 5.4 mph 90% 0 in 258 W/m2
08:59 62.4 °F 58.8 °F 30.1 in NW 2.2 mph 6 mph 88% 0 in 265 W/m2
09:05 62.8 °F 58.5 °F 30.1 in Calm   5.4 mph 86% 0 in 282 W/m2
09:11 63 °F 58.5 °F 30.1 in Calm   6 mph 85% 0 in 303 W/m2
09:17 63.3 °F 58.5 °F 30.1 in NNW 3.1 mph 6 mph 84% 0 in 319 W/m2
09:25 64.8 °F 59.2 °F 30.1 in North 1.6 mph 5.4 mph 82% 0 in 323 W/m2
09:31 65.1 °F 58.5 °F 30.1 in North 3.8 mph 6 mph 79% 0 in 326 W/m2
09:37 65.8 °F 59.5 °F 30.1 in Calm   6 mph 80% 0 in 343 W/m2
09:43 66.7 °F 59 °F 30.1 in NNE 0.7 mph 3.8 mph 76% 0 in 348 W/m2
09:49 66.6 °F 58.5 °F 30.1 in NNE 2.2 mph 6 mph 75% 0 in 349 W/m2
09:55 68 °F 59.7 °F 30.1 in Calm   6 mph 75% 0 in 355 W/m2
10:01 68.9 °F 59.5 °F 30.1 in Calm   0.7 mph 72% 0 in 361 W/m2
10:07 69.8 °F 58.8 °F 30.1 in Calm     68% 0 in 369 W/m2
10:13 70.7 °F 60.1 °F 30.1 in Calm     69% 0 in 379 W/m2
10:19 71.1 °F 60.1 °F 30.1 in Calm     68% 0 in 389 W/m2
10:25 70.9 °F 59 °F 30.1 in Calm     66% 0 in 400 W/m2
10:31 71.6 °F 58.8 °F 30.1 in NNW 3.1 mph 3.8 mph 64% 0 in 112 W/m2
10:37 71.1 °F 60.1 °F 30.1 in Calm   3.8 mph 68% 0 in 411 W/m2
10:43 72.5 °F 60.4 °F 30.1 in Calm   3.1 mph 66% 0 in 411 W/m2
10:49 74.5 °F 61.2 °F 30.1 in Calm     63% 0 in 382 W/m2
10:55 75.4 °F 59.5 °F 30.1 in Calm   2.2 mph 58% 0 in 157 W/m2
11:01 74.7 °F 59.4 °F 30.1 in Calm   2.2 mph 59% 0 in 71 W/m2
11:07 77.9 °F 60.4 °F 30.1 in Calm     55% 0 in 66 W/m2
11:13 76.6 °F 59.4 °F 30.1 in Calm     55% 0 in 63 W/m2
11:19 75.7 °F 59.5 °F 30.1 in Calm     57% 0 in 62 W/m2
11:25 76.1 °F 59.7 °F 30.1 in Calm     57% 0 in 65 W/m2
11:31 75.7 °F 59.5 °F 30.1 in Calm     57% 0 in 74 W/m2
11:37 77.4 °F 59.5 °F 30.1 in Calm     54% 0 in 268 W/m2
11:43 77 °F 59.2 °F 30.1 in Calm     54% 0 in 486 W/m2
11:49 77 °F 60.1 °F 30.1 in South 4.5 mph 6 mph 56% 0 in 509 W/m2
11:55 75.2 °F 59.4 °F 30.1 in South 3.8 mph 6 mph 58% 0 in 521 W/m2
12:01 74.1 °F 59.4 °F 30.1 in South 5.4 mph 6.9 mph 60% 0 in 539 W/m2
12:07 73.4 °F 59.5 °F 30.1 in South 4.5 mph 6.9 mph 62% 0 in 546 W/m2
12:13 72.5 °F 59.7 °F 30.1 in South 2.2 mph 6.9 mph 64% 0 in 555 W/m2
12:21 72.3 °F 59 °F 30.1 in South 5.4 mph 6.9 mph 63% 0 in 567 W/m2
12:27 71.8 °F 59 °F 30.1 in South 5.4 mph 7.6 mph 64% 0 in 572 W/m2
12:33 71.8 °F 59.4 °F 30.1 in Calm   7.6 mph 65% 0 in 577 W/m2
12:40 71.8 °F 59.4 °F 30.1 in SSE 3.8 mph 7.6 mph 65% 0 in 574 W/m2
12:45 72.3 °F 59 °F 30.1 in SSE 2.2 mph 6.9 mph 63% 0 in 588 W/m2
12:51 73.2 °F 60.3 °F 30.1 in SSE 3.1 mph 6.9 mph 64% 0 in 594 W/m2
12:57 73.6 °F 61.2 °F 30.1 in South 5.4 mph 6.9 mph 65% 0 in 600 W/m2
13:03 73.4 °F 60.4 °F 30.1 in South 5.4 mph 7.6 mph 64% 0 in 602 W/m2
13:09 73.4 °F 60.4 °F 30.1 in South 4.5 mph 9.2 mph 64% 0 in 602 W/m2
13:15 72.9 °F 59.5 °F 30.1 in South 4.5 mph 9.2 mph 63% 0 in 604 W/m2
13:21 72.7 °F 58.5 °F 30.1 in SSE 3.8 mph 7.6 mph 61% 0 in 602 W/m2
13:27 72.5 °F 58.8 °F 30.1 in SSE 3.1 mph 9.2 mph 62% 0 in 602 W/m2
13:33 73.6 °F 58.8 °F 30.1 in SSE 4.5 mph 9.2 mph 60% 0 in 604 W/m2
13:39 73.9 °F 60.1 °F 30.1 in SSE 5.4 mph 9.2 mph 62% 0 in 608 W/m2
13:45 73.6 °F 59.4 °F 30.1 in SSE 5.4 mph 9.2 mph 61% 0 in 604 W/m2
13:51 73.4 °F 60.1 °F 30.1 in South 6 mph 9.2 mph 63% 0 in 599 W/m2
13:57 73 °F 60.3 °F 30.1 in South 4.5 mph 9.2 mph 64% 0 in 593 W/m2
14:03 73.9 °F 61.5 °F 30.1 in SSE 2.2 mph 9.2 mph 65% 0 in 490 W/m2
14:10 74.8 °F 61.9 °F 30.1 in SSE 2.2 mph 8.3 mph 64% 0 in 223 W/m2
14:15 75.6 °F 62.1 °F 30.1 in SSE 1.6 mph 6 mph 63% 0 in 589 W/m2
14:21 75.7 °F 62.2 °F 30.1 in SSE 3.1 mph 6.9 mph 63% 0 in 583 W/m2
14:27 76.6 °F 63.1 °F 30.1 in SSE 2.2 mph 6.9 mph 63% 0 in 333 W/m2
14:33 77 °F 63 °F 30.1 in SE 0.7 mph 6.9 mph 62% 0 in 149 W/m2
14:39 77 °F 63 °F 30.1 in SE 0.7 mph 6.9 mph 62% 0 in 170 W/m2
14:59 77.4 °F 63 °F 30.1 in SSE 0.7 mph 8.3 mph 61% 0 in 376 W/m2
15:05 77.7 °F 63.7 °F 30.1 in SSE 2.2 mph 7.6 mph 62% 0 in 508 W/m2
15:11 79 °F 63 °F 30.1 in SE 3.1 mph 7.6 mph 58% 0 in 399 W/m2
15:17 78.1 °F 63.1 °F 30.1 in SSE 3.8 mph 6.9 mph 60% 0 in 99 W/m2
15:23 77.5 °F 63.5 °F 30.1 in SSE 5.4 mph 7.6 mph 62% 0 in 62 W/m2
15:29 77.2 °F 62.8 °F 30.1 in SSE 3.8 mph 7.6 mph 61% 0 in 59 W/m2
15:35 77.4 °F 63.9 °F 30.1 in SSE 1.6 mph 6.9 mph 63% 0 in 59 W/m2
15:41 77.9 °F 62.4 °F 30.1 in SSE 0.7 mph 6.9 mph 59% 0 in 61 W/m2
15:47 78.8 °F 62.2 °F 30.1 in SE 0.7 mph 6 mph 57% 0 in 62 W/m2
15:53 79 °F 62.4 °F 30.1 in SE 0.7 mph 5.4 mph 57% 0 in 62 W/m2
15:59 80.2 °F 62.8 °F 30.1 in South 3.1 mph 6 mph 55% 0 in 82 W/m2
16:05 79.9 °F 62.8 °F 30.1 in SE 3.1 mph 7.6 mph 56% 0 in 316 W/m2
16:11 80.4 °F 62.8 °F 30 in ESE 3.1 mph 7.6 mph 55% 0 in 322 W/m2
16:17 79.5 °F 62.1 °F 30 in SE 1.6 mph 7.6 mph 55% 0 in 351 W/m2
16:23 80.8 °F 61 °F 30 in SE 1.6 mph 6.9 mph 51% 0 in 149 W/m2
16:29 80.8 °F 58.1 °F 30 in ESE 1.6 mph 6 mph 46% 0 in 352 W/m2
16:35 79.7 °F 57.7 °F 30 in ESE 3.8 mph 6.9 mph 47% 0 in 334 W/m2
16:41 78.6 °F 57.4 °F 30 in East 1.6 mph 6.9 mph 48% 0 in 314 W/m2
16:47 79 °F 55.9 °F 30 in East 1.6 mph 6.9 mph 45% 0 in 300 W/m2
16:53 80.2 °F 56.5 °F 30 in Calm   6 mph 44% 0 in 277 W/m2
16:59 81.9 °F 57.9 °F 30 in SE 0.7 mph 4.5 mph 44% 0 in 258 W/m2
17:05 81.7 °F 56.5 °F 30 in ESE 1.6 mph 7.6 mph 42% 0 in 237 W/m2
17:11 81.3 °F 56.7 °F 30 in SE 2.2 mph 7.6 mph 43% 0 in 220 W/m2
17:17 80.2 °F 57 °F 30 in ESE 1.6 mph 6.9 mph 45% 0 in 197 W/m2
17:23 80.8 °F 57.6 °F 30 in Calm   6 mph 45% 0 in 183 W/m2
17:29 81.9 °F 57.9 °F 30 in SSE 0.7 mph 4.5 mph 44% 0 in 166 W/m2
17:35 83.3 °F 60.4 °F 30 in South 0.7 mph 3.1 mph 46% 0 in 151 W/m2
17:41 83.3 °F 61 °F 30 in Calm   3.8 mph 47% 0 in 131 W/m2
17:45 83.7 °F 60.6 °F 30 in Calm   3.8 mph 46% 0 in 119 W/m2
17:51 83.8 °F 61.5 °F 30 in Calm     47% 0 in 108 W/m2
17:57 84.4 °F 60.8 °F 30 in Calm     45% 0 in 91 W/m2
18:03 84.7 °F 61.2 °F 30 in Calm     45% 0 in 78 W/m2
18:09 84.2 °F 61.2 °F 30 in Calm     46% 0 in 63 W/m2
18:15 83.1 °F 61 °F 30 in ESE 0.7 mph 3.1 mph 47% 0 in 54 W/m2
18:21 82.8 °F 61.2 °F 30 in Calm   3.1 mph 48% 0 in 44 W/m2
18:27 81.9 °F 61 °F 30 in Calm   2.2 mph 49% 0 in 32 W/m2
18:33 79.3 °F 60.8 °F 30 in Calm     53% 0 in 30 W/m2
18:39 79 °F 61.5 °F 30 in Calm     55% 0 in 26 W/m2
18:45 76.8 °F 62.4 °F 30 in Calm     61% 0 in 18 W/m2
18:51 75 °F 63 °F 30 in Calm     66% 0 in 13 W/m2
18:57 72.5 °F 62.2 °F 30 in SW 0.7 mph 2.2 mph 70% 0 in 8 W/m2
19:03 70.2 °F 61.9 °F 30 in Calm   2.2 mph 75% 0 in 4 W/m2
19:09 68.9 °F 62.4 °F 30 in Calm     80% 0 in 0 W/m2
19:15 68 °F 62.8 °F 30.1 in Calm     83% 0 in 0 W/m2
19:21 67.3 °F 63 °F 30.1 in Calm   3.1 mph 86% 0 in 0 W/m2
19:27 66.9 °F 63.7 °F 30.1 in Calm   3.1 mph 89% 0 in 0 W/m2
19:33 66.9 °F 64.2 °F 30.1 in Calm     91% 0 in 0 W/m2
19:39 66.6 °F 63.9 °F 30.1 in Calm   3.1 mph 91% 0 in 0 W/m2
19:45 66.4 °F 64 °F 30.1 in Calm   3.1 mph 92% 0 in 0 W/m2
19:51 66.2 °F 64 °F 30.1 in Calm   4.5 mph 93% 0 in 0 W/m2
19:57 66.4 °F 64.2 °F 30.1 in SW 3.1 mph 5.4 mph 93% 0 in 0 W/m2
20:03 66.2 °F 64 °F 30.1 in SW 2.2 mph 5.4 mph 93% 0 in 0 W/m2
20:09 66 °F 64.2 °F 30.1 in Calm   3.8 mph 94% 0 in 0 W/m2
20:27 65.3 °F 63.1 °F 30.1 in Calm     93% 0 in 0 W/m2
20:33 64.9 °F 63 °F 30.1 in Calm     93% 0 in 0 W/m2
20:40 64.6 °F 62.8 °F 30.1 in Calm     94% 0 in 0 W/m2
20:45 64.4 °F 62.8 °F 30.1 in Calm     94% 0 in 0 W/m2
20:51 64.2 °F 62.2 °F 30.1 in Calm     93% 0 in 0 W/m2
20:57 63.7 °F 61.5 °F 30.1 in Calm     93% 0 in 0 W/m2
21:03 63.3 °F 61.3 °F 30.1 in Calm     93% 0 in 0 W/m2
21:25 62.8 °F 61 °F 30.1 in Calm     94% 0 in 0 W/m2
21:31 62.4 °F 61 °F 30.1 in Calm     95% 0 in 0 W/m2
21:37 62.2 °F 60.8 °F 30.1 in Calm     95% 0 in 0 W/m2
21:43 62.1 °F 61 °F 30.1 in Calm     96% 0 in 0 W/m2
21:49 62.1 °F 61 °F 30.1 in Calm     96% 0 in 0 W/m2
21:55 61.9 °F 60.6 °F 30.1 in Calm     96% 0 in 0 W/m2
22:01 61.7 °F 60.6 °F 30.1 in Calm     96% 0 in 0 W/m2
22:07 61.3 °F 60.3 °F 30.1 in Calm     96% 0 in 0 W/m2
22:13 61.2 °F 60.1 °F 30.1 in Calm     96% 0 in 0 W/m2
22:19 61 °F 59.7 °F 30.1 in Calm     96% 0 in 0 W/m2
22:25 61 °F 59.7 °F 30.1 in Calm     96% 0 in 0 W/m2
22:31 61 °F 59.7 °F 30.1 in Calm     96% 0 in 0 W/m2
22:37 60.8 °F 59.7 °F 30.1 in Calm     96% 0 in 0 W/m2
22:43 60.6 °F 60.1 °F 30.1 in Calm     98% 0 in 0 W/m2
22:49 60.4 °F 59.9 °F 30.1 in Calm     98% 0 in 0 W/m2
22:55 60.4 °F 59.9 °F 30.1 in Calm     98% 0 in 0 W/m2
23:01 60.3 °F 59.7 °F 30.1 in Calm     98% 0 in 0 W/m2
23:07 60.3 °F 59.7 °F 30.1 in Calm     98% 0 in 0 W/m2
23:13 60.3 °F 60.1 °F 30.1 in Calm     99% 0 in 0 W/m2
23:19 60.3 °F 60.1 °F 30.1 in Calm     99% 0 in 0 W/m2
23:25 60.1 °F 59.7 °F 30.1 in Calm     99% 0 in 0 W/m2
23:31 60.1 °F 59.7 °F 30.1 in Calm     99% 0 in 0 W/m2
23:37 60.1 °F 59.7 °F 30.1 in Calm     99% 0 in 0 W/m2
23:43 59.9 °F 59.5 °F 30.1 in Calm     99% 0 in 0 W/m2
23:49 59.9 °F 59.5 °F 30.1 in Calm     99% 0 in 0 W/m2
23:55 59.9 °F 59.5 °F 30.1 in Calm     99% 0 in 0 W/m2
Northern Hawkes Bay. New Zealand Historic Data
Compliments of Weather Underground - 2 mb